Aérodrome :
LOGIN :

S'inscrire | Disclaimer

   EN    FR    IT 

 










Légende :    VFR   VFR Marginal   IFR   IFR Intensif   IFR Très Intensif
Visi : 
Plafond : 
>= 8 km
>= 3000ft
5 à 8 km
1000 à 3000 ft
1500m à 5 km
500 à 1000 ft
800 à 1500m
200 à 500 ft
< 800m
< 200 ft
Symboles :   Orages  Brouillard  Fortes neiges  Fortes précipitations  Vent > 20 kt
SIGMETs :   Divers  Orages  Givrage  Turbulence  Onde Orograph.  Cendres Volcan.







- Altitude de l'aérodrome : 1017 ft
- Voir les cartes d'approche


LFSL - Brive Souillac

DERNIER METAR :
  • 240000Z AUTO 23004KT 180V310 9999 -RADZ BKN017/// BKN024/// BKN038/// ///TCU 17/14 Q1018

METARs EXPIRÉS :
  • 232330Z AUTO 25005KT 200V320 9999 FEW026 SCT032 BKN043 18/13 Q1018
  • 232300Z AUTO VRB05KT 9999 SCT043 BKN056 OVC070 19/13 Q1018
  • 232230Z AUTO VRB04KT 9999 OVC042 19/13 Q1018
  • 232200Z AUTO 25005KT 170V310 9999 OVC046 19/13 Q1018
  • 232130Z AUTO 26004KT 190V300 CAVOK 19/13 Q1018

Prévision TAF périmée.
Pas de NOTAMs connus pour ce terrain.



MET'MAP, la Météo Aéronautique d'un coup d'oeil ! - Copyright ORBIFLY Décembre 2007 - Disclaimer

ORBIFLY MET'MAP TEAM :

Programmation & Développement : Alexandra Zaïnal
Conception & Développement : Baudouin d'Aumeries
Co-Programmation & Développement : Marc-Olivier Méhu
Soutien technique & logistique : Manuel Goepfert

Contact : metmap@orbifly.com




SOURCES & CREDITS :

   NOAA